createdAt,value
2018-10-19T00:01:23.159Z,59.82
2018-10-19T00:03:35.773Z,59.83
2018-10-19T00:05:44.650Z,59.84
2018-10-19T00:07:57.327Z,59.83
2018-10-19T00:10:09.566Z,59.86
2018-10-19T00:12:24.626Z,59.84
2018-10-19T00:14:38.866Z,59.95
2018-10-19T00:16:48.418Z,60.00
2018-10-19T00:19:05.924Z,60.06
2018-10-19T00:21:17.805Z,60.09
2018-10-19T00:23:28.997Z,60.12
2018-10-19T00:25:37.233Z,60.14
2018-10-19T00:27:42.618Z,60.14
2018-10-19T00:30:17.228Z,60.16
2018-10-19T00:32:32.849Z,60.22
2018-10-19T00:34:43.403Z,60.23
2018-10-19T00:36:55.600Z,60.23
2018-10-19T00:39:09.466Z,60.24
2018-10-19T00:41:21.717Z,60.27
2018-10-19T00:43:31.125Z,60.29
2018-10-19T00:45:51.135Z,60.29
2018-10-19T00:48:21.066Z,60.29
2018-10-19T00:50:45.375Z,60.25
2018-10-19T00:53:01.589Z,60.21
2018-10-19T00:55:14.170Z,60.22
2018-10-19T00:57:23.059Z,60.20
2018-10-19T00:59:38.054Z,60.24
2018-10-19T01:01:47.283Z,60.25
2018-10-19T01:03:56.261Z,60.27
2018-10-19T01:06:05.726Z,60.26
2018-10-19T01:08:15.663Z,60.27
2018-10-19T01:10:26.654Z,60.27
2018-10-19T01:12:38.948Z,60.29
2018-10-19T01:14:47.671Z,60.41
2018-10-19T01:16:56.665Z,60.49
2018-10-19T01:19:05.903Z,60.62
2018-10-19T01:21:18.084Z,60.72
2018-10-19T01:23:30.450Z,60.82
2018-10-19T01:25:44.346Z,60.94
2018-10-19T01:27:49.580Z,61.03
2018-10-19T01:29:57.629Z,61.11
2018-10-19T01:32:06.778Z,61.23
2018-10-19T01:34:17.928Z,61.35
2018-10-19T01:36:57.576Z,61.52
2018-10-19T01:39:06.182Z,61.64
2018-10-19T01:41:14.919Z,61.71
2018-10-19T01:43:24.750Z,61.79
2018-10-19T01:45:32.736Z,61.81
2018-10-19T01:47:41.281Z,61.83
2018-10-19T01:49:50.567Z,61.88
2018-10-19T01:52:01.170Z,61.93
2018-10-19T01:54:09.756Z,62.00
2018-10-19T01:56:17.713Z,62.08
2018-10-19T01:58:25.789Z,62.13
2018-10-19T02:00:33.764Z,62.17
2018-10-19T02:02:41.752Z,62.21
2018-10-19T02:04:50.058Z,62.19
2018-10-19T02:06:58.234Z,62.20
2018-10-19T02:09:07.315Z,62.17
2018-10-19T02:11:15.354Z,62.14
2018-10-19T02:13:23.404Z,62.11
2018-10-19T02:15:31.365Z,62.11
2018-10-19T02:17:39.556Z,62.12
2018-10-19T02:19:47.597Z,62.08
2018-10-19T02:21:55.610Z,62.04
2018-10-19T02:24:03.623Z,62.02
2018-10-19T02:26:11.591Z,61.97
2018-10-19T02:28:20.261Z,61.92
2018-10-19T02:30:28.395Z,61.93
2018-10-19T02:32:36.390Z,61.93
2018-10-19T02:34:44.356Z,61.97
2018-10-19T02:36:52.442Z,61.98
2018-10-19T02:39:00.712Z,62.03
2018-10-19T02:41:09.038Z,62.05
2018-10-19T02:43:16.940Z,62.07
2018-10-19T02:48:11.207Z,62.02
2018-10-19T02:50:19.217Z,61.90
2018-10-19T02:52:27.239Z,61.85
2018-10-19T02:54:35.223Z,61.86
2018-10-19T02:56:43.233Z,61.83
2018-10-19T02:58:51.208Z,61.77
2018-10-19T03:00:59.228Z,61.74
2018-10-19T03:03:07.502Z,61.77
2018-10-19T03:05:15.444Z,61.79
2018-10-19T03:07:23.475Z,61.85
2018-10-19T03:09:31.424Z,61.88
2018-10-19T03:11:39.425Z,61.93
2018-10-19T03:13:47.442Z,62.01
2018-10-19T03:15:57.752Z,62.15
2018-10-19T03:18:05.772Z,62.21
2018-10-19T03:20:14.309Z,62.22
2018-10-19T03:22:22.201Z,62.23
2018-10-19T03:24:30.275Z,62.20
2018-10-19T03:26:38.546Z,62.18
2018-10-19T03:28:46.516Z,62.13
2018-10-19T03:30:54.592Z,62.13
2018-10-19T03:33:02.604Z,62.19
2018-10-19T03:35:10.689Z,62.20
2018-10-19T03:37:18.539Z,62.23
2018-10-19T03:39:27.582Z,62.25
2018-10-19T03:41:35.605Z,62.26
2018-10-19T03:43:43.548Z,62.25
2018-10-19T03:45:51.875Z,62.21
2018-10-19T03:47:59.897Z,62.19
2018-10-19T03:50:08.726Z,62.19
2018-10-19T03:52:16.725Z,62.20
2018-10-19T03:54:24.726Z,62.20
2018-10-19T03:56:32.797Z,62.21
2018-10-19T03:58:43.931Z,62.22
2018-10-19T04:00:51.836Z,62.24
2018-10-19T04:02:59.983Z,62.24
2018-10-19T04:05:08.400Z,62.28
2018-10-19T04:07:16.476Z,62.37
2018-10-19T04:09:24.928Z,62.49
2018-10-19T04:11:34.102Z,62.60
2018-10-19T04:13:42.122Z,62.63
2018-10-19T04:15:50.122Z,62.68
2018-10-19T04:17:58.901Z,62.70
2018-10-19T04:20:06.961Z,62.70
2018-10-19T04:22:14.950Z,62.71
2018-10-19T04:24:23.015Z,62.77
2018-10-19T04:26:29.309Z,62.82
2018-10-19T04:28:34.602Z,62.88
2018-10-19T04:30:42.667Z,62.91
2018-10-19T04:32:50.795Z,62.96
2018-10-19T04:34:58.969Z,63.00
2018-10-19T04:37:11.120Z,63.03
2018-10-19T04:39:20.517Z,63.06
2018-10-19T04:41:28.628Z,63.11
2018-10-19T04:43:36.635Z,63.21
2018-10-19T04:45:44.627Z,63.30
2018-10-19T04:47:52.750Z,63.38
2018-10-19T04:50:00.610Z,63.51
2018-10-19T04:52:08.736Z,63.60
2018-10-19T04:54:16.795Z,63.63
2018-10-19T04:56:24.855Z,63.65
2018-10-19T04:58:33.626Z,63.65
2018-10-19T05:00:41.668Z,63.62
2018-10-19T05:02:50.759Z,63.56
2018-10-19T05:04:58.785Z,63.55
2018-10-19T05:07:06.863Z,63.54
2018-10-19T05:09:15.450Z,63.54
2018-10-19T05:11:23.501Z,63.58
2018-10-19T05:13:31.515Z,63.60
2018-10-19T05:15:39.547Z,63.66
2018-10-19T05:17:47.575Z,63.66
2018-10-19T05:19:55.729Z,63.68
2018-10-19T05:22:03.797Z,63.69
2018-10-19T05:24:11.751Z,63.67
2018-10-19T05:26:20.182Z,63.68
2018-10-19T05:28:25.433Z,63.69
2018-10-19T05:30:33.513Z,63.65
2018-10-19T05:32:42.863Z,63.63
2018-10-19T05:34:50.737Z,63.61
2018-10-19T05:36:58.845Z,63.55
2018-10-19T05:39:09.491Z,63.58
2018-10-19T05:41:17.558Z,63.57
2018-10-19T05:43:25.542Z,63.55
2018-10-19T05:45:33.527Z,63.55
2018-10-19T05:47:42.185Z,63.54
2018-10-19T05:49:50.289Z,63.54
2018-10-19T05:51:58.451Z,63.54
2018-10-19T05:54:09.076Z,63.54
2018-10-19T05:56:17.464Z,63.59
2018-10-19T05:58:25.478Z,63.66
2018-10-19T06:00:33.511Z,63.70
2018-10-19T06:02:41.594Z,63.74
2018-10-19T06:04:49.710Z,63.74
2018-10-19T06:06:58.816Z,63.71
2018-10-19T06:09:08.708Z,63.70
2018-10-19T06:11:18.723Z,63.72
2018-10-19T06:13:24.757Z,63.73
2018-10-19T06:15:32.860Z,63.72
2018-10-19T06:17:41.144Z,63.72
2018-10-19T06:19:49.235Z,63.72
2018-10-19T06:21:59.692Z,63.74
2018-10-19T06:24:09.223Z,63.71
2018-10-19T06:26:14.558Z,63.64
2018-10-19T06:28:22.509Z,63.63
2018-10-19T06:30:30.516Z,63.64
2018-10-19T06:32:39.044Z,63.66
2018-10-19T06:34:47.071Z,63.71
2018-10-19T06:36:57.485Z,63.81
2018-10-19T06:39:06.013Z,63.88
2018-10-19T06:41:15.839Z,64.00
2018-10-19T06:43:31.872Z,64.12
2018-10-19T06:45:39.952Z,64.20
2018-10-19T06:47:48.059Z,64.23
2018-10-19T06:49:56.071Z,64.30
2018-10-19T06:52:04.052Z,64.37
2018-10-19T06:54:12.035Z,64.44
2018-10-19T06:56:20.004Z,64.48
2018-10-19T06:58:28.048Z,64.52
2018-10-19T07:00:36.062Z,64.56
2018-10-19T07:02:44.680Z,64.58
2018-10-19T07:04:52.688Z,64.53
2018-10-19T07:07:00.687Z,64.51
2018-10-19T07:09:09.794Z,64.44
2018-10-19T07:11:17.899Z,64.37
2018-10-19T07:13:25.812Z,64.32
2018-10-19T07:15:33.924Z,64.28
2018-10-19T07:17:41.815Z,64.27
2018-10-19T07:19:49.815Z,64.31
2018-10-19T07:21:57.875Z,64.33
2018-10-19T07:24:06.026Z,64.31
2018-10-19T07:26:14.117Z,64.29
2018-10-19T07:28:22.691Z,64.28
2018-10-19T07:30:30.785Z,64.29
2018-10-19T07:32:38.862Z,64.24
2018-10-19T07:34:46.945Z,64.23
2018-10-19T07:36:55.001Z,64.22
2018-10-19T07:39:03.006Z,64.22
2018-10-19T07:41:11.218Z,64.18
2018-10-19T07:43:21.044Z,64.13
2018-10-19T07:45:29.967Z,64.07
2018-10-19T07:47:43.654Z,64.04
2018-10-19T07:49:52.779Z,64.03
2018-10-19T07:52:07.753Z,64.08
2018-10-19T07:54:22.352Z,64.14
2018-10-19T07:56:49.065Z,64.15
2018-10-19T07:59:00.029Z,64.18
2018-10-19T08:01:10.224Z,64.17
2018-10-19T08:06:10.170Z,64.18
2018-10-19T08:08:27.796Z,64.21
2018-10-19T08:10:36.778Z,64.17
2018-10-19T08:12:45.230Z,64.20
2018-10-19T08:14:57.652Z,64.20
2018-10-19T08:17:07.606Z,64.19
2018-10-19T08:19:18.559Z,64.22
2018-10-19T08:21:33.189Z,64.23
2018-10-19T08:23:51.210Z,64.19
2018-10-19T08:25:56.801Z,64.13
2018-10-19T08:28:25.381Z,64.09
2018-10-19T08:30:56.687Z,64.02
2018-10-19T08:33:14.825Z,63.98
2018-10-19T08:35:30.450Z,63.94
2018-10-19T08:40:16.113Z,63.83
2018-10-19T08:42:50.760Z,63.79
2018-10-19T08:45:05.988Z,63.72
2018-10-19T08:47:15.728Z,63.66
2018-10-19T08:49:34.428Z,63.57
2018-10-19T08:51:46.306Z,63.51
2018-10-19T08:56:44.934Z,63.46
2018-10-19T08:59:03.016Z,63.40
2018-10-19T09:01:37.315Z,63.38
2018-10-19T09:03:58.818Z,63.31
2018-10-19T09:06:18.778Z,63.30
2018-10-19T09:08:28.315Z,63.25
2018-10-19T09:10:40.930Z,63.21
2018-10-19T09:12:49.681Z,63.14
2018-10-19T09:15:06.157Z,63.07
2018-10-19T09:17:26.896Z,63.03
2018-10-19T09:19:36.373Z,62.93
2018-10-19T09:21:45.094Z,62.89
2018-10-19T09:23:53.963Z,62.81
2018-10-19T09:26:03.971Z,62.72
2018-10-19T09:28:16.970Z,62.59
2018-10-19T09:30:27.259Z,62.47
2018-10-19T09:32:48.077Z,62.41
2018-10-19T09:35:03.022Z,62.31
2018-10-19T09:37:14.179Z,62.30
2018-10-19T09:39:33.027Z,62.25
2018-10-19T09:41:45.713Z,62.14
2018-10-19T09:44:03.233Z,62.04
2018-10-19T09:46:20.705Z,61.98
2018-10-19T09:48:34.425Z,61.89
2018-10-19T09:50:47.313Z,61.77
2018-10-19T09:53:04.297Z,61.70
2018-10-19T09:55:12.834Z,61.61
2018-10-19T09:57:57.638Z,61.52
2018-10-19T10:00:09.375Z,61.39
2018-10-19T10:02:21.310Z,61.22
2018-10-19T10:04:53.825Z,61.12
2018-10-19T10:07:03.761Z,61.00
2018-10-19T10:09:16.423Z,60.92
2018-10-19T10:11:27.515Z,60.77
2018-10-19T10:13:38.521Z,60.67
2018-10-19T10:15:47.531Z,60.57
2018-10-19T10:17:57.570Z,60.52
2018-10-19T10:20:05.769Z,60.41
2018-10-19T10:22:24.064Z,60.25
2018-10-19T10:24:32.530Z,60.23
2018-10-19T10:26:49.501Z,60.06
2018-10-19T10:29:01.785Z,59.96
2018-10-19T10:31:09.943Z,59.91
2018-10-19T10:33:16.070Z,59.78
2018-10-19T10:35:24.365Z,59.61
2018-10-19T10:37:32.556Z,59.49
2018-10-19T10:39:40.566Z,59.43
2018-10-19T10:41:52.154Z,59.33
2018-10-19T10:44:01.631Z,59.16
2018-10-19T10:46:10.323Z,59.08
2018-10-19T10:48:30.000Z,59.01
2018-10-19T10:50:38.996Z,58.94
2018-10-19T10:52:47.240Z,58.89
2018-10-19T10:54:55.448Z,58.78
2018-10-19T10:57:03.678Z,58.70
2018-10-19T10:59:12.161Z,58.65
2018-10-19T11:01:20.487Z,58.50
2018-10-19T11:03:30.957Z,58.42
2018-10-19T11:05:39.029Z,58.22
2018-10-19T11:07:47.919Z,58.19
2018-10-19T11:09:57.453Z,58.13
2018-10-19T11:12:05.578Z,58.04
2018-10-19T11:14:13.745Z,57.83
2018-10-19T11:16:21.813Z,57.78
2018-10-19T11:18:29.841Z,57.59
2018-10-19T11:20:37.912Z,57.54
2018-10-19T11:22:46.050Z,57.50
2018-10-19T11:24:54.060Z,57.39
2018-10-19T11:27:02.170Z,57.21
2018-10-19T11:29:10.172Z,57.04
2018-10-19T11:31:18.311Z,56.98
2018-10-19T11:33:25.840Z,56.83
2018-10-19T11:35:33.855Z,56.82
2018-10-19T11:37:41.932Z,56.76
2018-10-19T11:40:40.021Z,56.56
2018-10-19T11:42:48.051Z,56.53
2018-10-19T11:44:56.004Z,56.48
2018-10-19T11:47:04.182Z,56.48
2018-10-19T11:49:12.309Z,56.36
2018-10-19T11:51:20.324Z,56.20
2018-10-19T11:53:28.403Z,56.07
2018-10-19T11:55:36.463Z,55.83
2018-10-19T11:57:44.550Z,55.87
2018-10-19T11:59:52.629Z,55.81
2018-10-19T12:02:01.103Z,55.70
2018-10-19T12:04:17.031Z,55.70
2018-10-19T12:06:25.854Z,55.57
2018-10-19T12:08:33.918Z,55.59
2018-10-19T12:10:42.076Z,55.44
2018-10-19T12:12:50.110Z,55.39
2018-10-19T12:14:58.397Z,55.34
2018-10-19T12:17:06.600Z,55.22
2018-10-19T12:19:14.828Z,54.97
2018-10-19T12:21:22.922Z,54.86
2018-10-19T12:23:31.732Z,54.61
2018-10-19T12:25:39.945Z,54.62
2018-10-19T12:27:47.979Z,54.57
2018-10-19T12:29:56.054Z,54.39
2018-10-19T12:32:04.321Z,54.26
2018-10-19T12:34:10.573Z,54.32
2018-10-19T12:36:18.625Z,54.11
2018-10-19T12:38:26.720Z,54.01
2018-10-19T12:40:34.993Z,54.00
2018-10-19T12:42:42.947Z,53.83
2018-10-19T12:44:50.992Z,53.86
2018-10-19T12:47:55.361Z,53.85
2018-10-19T12:50:05.302Z,53.85
2018-10-19T12:52:14.639Z,53.78
2018-10-19T12:54:22.763Z,53.74
2018-10-19T12:56:30.723Z,53.63
2018-10-19T12:58:39.784Z,53.54
2018-10-19T13:00:59.263Z,53.51
2018-10-19T13:03:07.365Z,53.40
2018-10-19T13:05:18.649Z,53.34
2018-10-19T13:07:27.668Z,53.26
2018-10-19T13:09:41.530Z,53.18
2018-10-19T13:13:19.083Z,53.09
2018-10-19T13:15:27.153Z,53.13
2018-10-19T13:17:42.688Z,53.22
2018-10-19T13:20:01.831Z,53.08
2018-10-19T13:22:25.664Z,52.73
2018-10-19T13:24:33.814Z,52.72
2018-10-19T13:26:56.207Z,52.77
2018-10-19T13:29:15.615Z,52.68
2018-10-19T13:33:59.434Z,52.55
2018-10-19T13:38:56.188Z,52.39
2018-10-19T13:41:04.325Z,52.42
2018-10-19T13:43:49.894Z,52.25
2018-10-19T13:46:00.220Z,52.22
2018-10-19T13:48:36.952Z,52.26
2018-10-19T13:50:53.268Z,52.06
2018-10-19T13:53:07.208Z,52.06
2018-10-19T13:55:25.218Z,51.93
2018-10-19T13:57:43.621Z,51.87
2018-10-19T13:59:50.382Z,51.62
2018-10-19T14:02:03.637Z,51.60
2018-10-19T14:04:11.613Z,51.57
2018-10-19T14:06:26.719Z,51.49
2018-10-19T14:08:52.805Z,51.39
2018-10-19T14:11:17.337Z,51.29
2018-10-19T14:13:34.136Z,51.29
2018-10-19T14:15:55.132Z,51.28
2018-10-19T14:18:03.197Z,51.25
2018-10-19T14:20:17.656Z,51.06
2018-10-19T14:22:35.440Z,50.85
2018-10-19T14:24:53.710Z,50.78
2018-10-19T14:27:15.492Z,50.79
2018-10-19T14:29:23.757Z,50.80
2018-10-19T14:31:39.525Z,50.79
2018-10-19T14:34:17.142Z,50.67
2018-10-19T14:36:27.076Z,50.62
2018-10-19T14:38:59.765Z,50.52
2018-10-19T14:41:23.610Z,50.52
2018-10-19T14:43:27.562Z,50.53
2018-10-19T14:45:36.618Z,50.45
2018-10-19T14:47:47.176Z,50.44
2018-10-19T14:49:56.514Z,50.35
2018-10-19T14:52:10.714Z,50.26
2018-10-19T14:54:20.020Z,50.17
2018-10-19T14:56:37.071Z,50.07
2018-10-19T14:58:45.822Z,50.06
2018-10-19T15:00:54.902Z,50.02
2018-10-19T15:03:04.439Z,49.97
2018-10-19T15:05:20.336Z,49.71
2018-10-19T15:07:28.449Z,49.82
2018-10-19T15:09:36.671Z,49.82
2018-10-19T15:11:50.164Z,49.78
2018-10-19T15:14:03.200Z,49.76
2018-10-19T15:16:14.724Z,49.70
2018-10-19T15:18:25.015Z,49.66
2018-10-19T15:20:35.273Z,49.66
2018-10-19T15:22:44.334Z,49.65
2018-10-19T15:24:57.634Z,49.63
2018-10-19T15:27:09.640Z,49.55
2018-10-19T15:29:22.261Z,49.52
2018-10-19T15:31:51.829Z,49.53
2018-10-19T15:34:06.916Z,49.45
2018-10-19T15:36:14.279Z,49.47
2018-10-19T15:38:27.299Z,49.38
2018-10-19T15:40:37.649Z,49.36
2018-10-19T15:42:46.606Z,49.37
2018-10-19T15:44:56.038Z,49.31
2018-10-19T15:47:04.522Z,49.31
2018-10-19T15:49:13.676Z,49.33
2018-10-19T15:51:24.295Z,49.36
2018-10-19T15:53:32.914Z,49.39
2018-10-19T15:55:43.603Z,49.37
2018-10-19T15:57:51.875Z,49.36
2018-10-19T16:00:00.411Z,49.42
2018-10-19T16:02:12.808Z,49.46
2018-10-19T16:04:25.572Z,49.50
2018-10-19T16:06:35.240Z,49.56
2018-10-19T16:08:43.623Z,49.58
2018-10-19T16:10:51.743Z,49.63
2018-10-19T16:13:01.044Z,49.71
2018-10-19T16:15:12.896Z,49.76
2018-10-19T16:17:27.948Z,49.80
2018-10-19T16:19:38.668Z,49.86
2018-10-19T16:24:55.597Z,49.94
2018-10-19T16:27:03.821Z,50.08
2018-10-19T16:29:11.887Z,50.10
2018-10-19T16:31:20.510Z,50.14
2018-10-19T16:33:40.615Z,50.20
2018-10-19T16:35:51.966Z,50.27
2018-10-19T16:38:06.784Z,50.38
2018-10-19T16:40:18.335Z,50.50
2018-10-19T16:42:27.510Z,50.68
2018-10-19T16:44:36.984Z,50.84
2018-10-19T16:46:45.241Z,51.04
2018-10-19T16:48:53.525Z,51.20
2018-10-19T16:51:01.741Z,51.37
2018-10-19T16:53:13.495Z,51.46
2018-10-19T16:55:24.706Z,51.60
2018-10-19T16:57:33.234Z,51.75
2018-10-19T16:59:42.290Z,51.83
2018-10-19T17:01:51.822Z,51.91
2018-10-19T17:04:00.236Z,51.95
2018-10-19T17:06:09.157Z,51.98
2018-10-19T17:08:21.864Z,52.07
2018-10-19T17:10:30.654Z,52.17
2018-10-19T17:12:43.299Z,52.29
2018-10-19T17:14:52.791Z,52.45
2018-10-19T17:17:02.575Z,52.54
2018-10-19T17:19:16.876Z,52.67
2018-10-19T17:21:28.911Z,52.80
2018-10-19T17:23:41.975Z,52.86
2018-10-19T17:25:50.684Z,52.87
2018-10-19T17:27:59.155Z,52.87
2018-10-19T17:30:09.360Z,52.92
2018-10-19T17:32:18.826Z,52.93
2018-10-19T17:34:30.400Z,53.03
2018-10-19T17:36:42.184Z,53.13
2018-10-19T17:38:52.459Z,53.21
2018-10-19T17:40:57.972Z,53.29
2018-10-19T17:43:06.315Z,53.39
2018-10-19T17:45:23.606Z,53.53
2018-10-19T17:47:39.242Z,53.75
2018-10-19T17:49:48.667Z,53.97
2018-10-19T17:52:01.384Z,54.11
2018-10-19T17:54:17.056Z,54.23
2018-10-19T17:56:27.902Z,54.32
2018-10-19T17:58:42.310Z,54.39
2018-10-19T18:00:51.053Z,54.45
2018-10-19T18:03:00.215Z,54.55
2018-10-19T18:05:09.460Z,54.65
2018-10-19T18:07:18.491Z,54.77
2018-10-19T18:09:30.856Z,54.90
2018-10-19T18:11:39.821Z,55.01
2018-10-19T18:13:47.821Z,55.05
2018-10-19T18:15:56.312Z,55.13
2018-10-19T18:18:04.515Z,55.19
2018-10-19T18:20:12.698Z,55.29
2018-10-19T18:22:27.400Z,55.42
2018-10-19T18:25:17.600Z,55.51
2018-10-19T18:28:02.878Z,55.58
2018-10-19T18:31:09.868Z,55.64
2018-10-19T18:34:00.833Z,55.72
2018-10-19T18:35:50.119Z,55.70
2018-10-19T18:39:01.906Z,55.69
2018-10-19T18:41:14.241Z,55.67
2018-10-19T18:43:53.203Z,55.67
2018-10-19T18:46:22.480Z,55.70
2018-10-19T18:48:50.668Z,55.79
2018-10-19T18:51:20.693Z,55.87
2018-10-19T18:53:48.855Z,55.94
2018-10-19T18:56:06.563Z,56.10
2018-10-19T19:01:28.211Z,56.25
2018-10-19T19:03:34.738Z,56.27
2018-10-19T19:06:00.690Z,56.32
2018-10-19T19:08:19.877Z,56.45
2018-10-19T19:10:42.685Z,56.46
2018-10-19T19:13:15.262Z,56.45
2018-10-19T19:15:36.152Z,56.47
2018-10-19T19:17:48.135Z,56.44
2018-10-19T19:22:26.365Z,56.73
2018-10-19T19:25:02.449Z,56.83
2018-10-19T19:27:16.394Z,56.88
2018-10-19T19:29:26.240Z,56.92
2018-10-19T19:31:35.687Z,56.97
2018-10-19T19:34:14.234Z,56.98
2018-10-19T19:36:36.218Z,56.89
2018-10-19T19:38:55.309Z,56.84
2018-10-19T19:41:25.900Z,56.90
2018-10-19T19:43:39.391Z,57.05
2018-10-19T19:45:49.074Z,57.18
2018-10-19T19:48:23.100Z,57.39
2018-10-19T19:50:32.413Z,57.63
2018-10-19T19:52:50.709Z,57.83
2018-10-19T19:55:06.439Z,57.95
2018-10-19T19:57:15.628Z,58.00
2018-10-19T19:59:32.085Z,58.05
2018-10-19T20:01:50.228Z,58.06
2018-10-19T20:04:11.869Z,58.08
2018-10-19T20:06:20.712Z,58.14
2018-10-19T20:08:28.875Z,58.13
2018-10-19T20:10:37.051Z,58.19
2018-10-19T20:12:45.259Z,58.26
2018-10-19T20:14:53.328Z,58.33
2018-10-19T20:17:01.496Z,58.39
2018-10-19T20:19:09.498Z,58.45
2018-10-19T20:21:17.770Z,58.51
2018-10-19T20:23:25.928Z,58.53
2018-10-19T20:25:34.165Z,58.56
2018-10-19T20:27:42.603Z,58.60
2018-10-19T20:29:50.664Z,58.62
2018-10-19T20:31:58.773Z,58.67
2018-10-19T20:34:07.082Z,58.67
2018-10-19T20:36:15.306Z,58.74
2018-10-19T20:38:23.487Z,58.75
2018-10-19T20:40:31.545Z,58.78
2018-10-19T20:42:39.656Z,58.71
2018-10-19T20:44:45.208Z,58.75
2018-10-19T20:46:53.296Z,58.88
2018-10-19T20:49:08.226Z,58.98
2018-10-19T20:51:25.190Z,59.01
2018-10-19T20:53:55.833Z,59.00
2018-10-19T20:56:09.845Z,58.96
2018-10-19T20:58:21.543Z,58.83
2018-10-19T21:00:38.565Z,58.86
2018-10-19T21:02:58.695Z,58.93
2018-10-19T21:05:22.445Z,59.08
2018-10-19T21:07:52.644Z,59.16
2018-10-19T21:10:04.451Z,59.21
2018-10-19T21:13:00.393Z,59.17
2018-10-19T21:15:30.105Z,59.18
2018-10-19T21:17:58.218Z,59.16
2018-10-19T21:20:34.488Z,59.18
2018-10-19T21:23:15.914Z,59.28
2018-10-19T21:26:15.734Z,59.34
2018-10-19T21:28:44.638Z,59.35
2018-10-19T21:31:44.110Z,59.33
2018-10-19T21:33:58.041Z,59.32
2018-10-19T21:36:14.132Z,59.38
2018-10-19T21:38:34.367Z,59.43
2018-10-19T21:40:54.768Z,59.44
2018-10-19T21:43:59.656Z,59.53
2018-10-19T21:55:57.490Z,59.65
2018-10-19T21:58:29.838Z,59.70
2018-10-19T22:00:41.295Z,59.84
2018-10-19T22:05:36.875Z,60.01
2018-10-19T22:07:48.397Z,60.03
2018-10-19T22:10:06.352Z,60.03
2018-10-19T22:12:31.710Z,60.02
2018-10-19T22:14:43.823Z,60.00
2018-10-19T22:16:54.465Z,59.94
2018-10-19T22:25:11.397Z,59.88
2018-10-19T22:27:20.574Z,59.81
2018-10-19T22:29:35.981Z,59.81
2018-10-19T22:31:52.550Z,59.84
2018-10-19T22:34:04.957Z,59.90
2018-10-19T22:38:37.766Z,60.17
2018-10-19T22:43:40.174Z,60.05
2018-10-19T22:45:49.602Z,59.88
2018-10-19T22:47:55.755Z,59.94
2018-10-19T22:50:04.953Z,60.10
2018-10-19T22:52:24.350Z,60.28
2018-10-19T22:54:39.871Z,60.47
2018-10-19T22:57:10.355Z,60.54
2018-10-19T23:02:04.286Z,60.66
2018-10-19T23:04:19.048Z,60.70
2018-10-19T23:06:53.583Z,60.73
2018-10-19T23:11:42.170Z,60.85
2018-10-19T23:14:16.685Z,60.87
2018-10-19T23:16:42.298Z,60.86
2018-10-19T23:19:02.463Z,60.75
2018-10-19T23:21:14.322Z,60.66
2018-10-19T23:26:22.674Z,60.67
2018-10-19T23:28:42.458Z,60.72
2018-10-19T23:30:54.217Z,60.83
2018-10-19T23:33:06.856Z,60.89
2018-10-19T23:35:16.600Z,60.96
2018-10-19T23:37:32.330Z,61.02
2018-10-19T23:39:44.146Z,61.04
2018-10-19T23:41:57.144Z,60.99
2018-10-19T23:44:12.280Z,60.91
2018-10-19T23:46:28.956Z,60.96
2018-10-19T23:48:37.363Z,61.03
2018-10-19T23:50:47.192Z,61.17
2018-10-19T23:53:02.537Z,61.24
2018-10-19T23:55:10.055Z,61.28
2018-10-19T23:57:33.297Z,61.33
2018-10-19T23:59:51.956Z,61.37
